Time;durP1;ratioP1;P1;durP2;ratioP2;P2;SDS_P1;SDS_P2;PMS_P1;PMS_P2;Temp;Humidity;BMP_temperature;BMP_pressure;BME280_temperature;BME280_humidity;BME280_pressure;Samples;Min_cycle;Max_cycle;Signal;HPM_P1;HPM_P2
2022/05/21 00:00:55;;;;;;;9.98;5.90;;;20.20;98.40;;;;;;4994995;28;20038;-77
2022/05/21 00:03:21;;;;;;;8.98;5.63;;;20.10;98.70;;;;;;4994028;28;20073;-74
2022/05/21 00:05:47;;;;;;;14.75;6.82;;;20.30;98.60;;;;;;5000238;28;20552;-74
2022/05/21 00:08:12;;;;;;;9.88;6.20;;;20.10;98.80;;;;;;5013081;28;20101;-76
2022/05/21 00:10:39;;;;;;;12.27;6.05;;;20.10;98.90;;;;;;5007678;28;20041;-76
2022/05/21 00:13:06;;;;;;;10.85;6.60;;;20.10;98.90;;;;;;4993258;28;20452;-76
2022/05/21 00:15:34;;;;;;;9.75;6.03;;;20.50;98.30;;;;;;5004813;28;20145;-76
2022/05/21 00:18:00;;;;;;;10.75;5.97;;;20.50;98.30;;;;;;5011151;28;20040;-76
2022/05/21 00:23:15;;;;;;;9.15;5.70;;;20.30;98.70;;;;;;5004023;28;20523;-79
2022/05/21 00:25:43;;;;;;;9.80;6.00;;;20.40;98.40;;;;;;5010640;28;20074;-76
2022/05/21 00:28:09;;;;;;;10.35;6.05;;;20.50;98.40;;;;;;5011011;28;20034;-77
2022/05/21 00:30:35;;;;;;;8.63;5.53;;;20.40;98.40;;;;;;5012598;28;20127;-76
2022/05/21 00:33:01;;;;;;;10.23;5.32;;;20.60;98.00;;;;;;5005635;28;20524;-76
2022/05/21 00:35:28;;;;;;;8.18;5.05;;;20.60;97.80;;;;;;4992671;28;20026;-76
2022/05/21 00:37:54;;;;;;;8.52;5.65;;;20.50;98.10;;;;;;4993771;28;20096;-76
2022/05/21 00:40:19;;;;;;;9.88;4.82;;;20.50;98.00;;;;;;4992602;28;20440;-76
2022/05/21 00:42:46;;;;;;;11.73;5.43;;;20.70;97.60;;;;;;4993847;28;20048;-76
2022/05/21 00:45:13;;;;;;;10.00;4.65;;;21.00;97.30;;;;;;4992947;28;20031;-76
2022/05/21 00:47:39;;;;;;;8.63;4.78;;;21.10;96.90;;;;;;4993337;28;20045;-76
2022/05/21 00:50:07;;;;;;;11.13;5.30;;;20.90;97.20;;;;;;4992815;28;20030;-76
2022/05/21 00:52:35;;;;;;;8.93;4.80;;;20.80;97.30;;;;;;4988702;28;20365;-77
2022/05/21 00:55:38;;;;;;;7.65;4.85;;;20.80;97.40;;;;;;4988608;28;20034;-77
2022/05/21 01:00:53;;;;;;;9.40;4.85;;;20.50;98.10;;;;;;5004458;28;20776;-77
2022/05/21 01:03:18;;;;;;;10.38;5.40;;;20.50;97.90;;;;;;4967329;28;1123515;-76
2022/05/21 01:05:48;;;;;;;7.57;4.95;;;20.50;98.10;;;;;;4988673;28;20030;-78
2022/05/21 01:08:14;;;;;;;9.75;5.15;;;20.50;98.20;;;;;;4997111;28;20033;-77
2022/05/21 01:10:47;;;;;;;9.77;4.80;;;20.40;98.10;;;;;;5008117;28;20053;-77
2022/05/21 01:13:17;;;;;;;8.85;4.15;;;20.30;98.30;;;;;;5004588;28;20037;-77
2022/05/21 01:15:47;;;;;;;7.80;4.80;;;20.30;98.60;;;;;;4988498;28;20537;-76
2022/05/21 01:18:13;;;;;;;8.93;5.38;;;20.20;98.60;;;;;;4988445;28;20034;-77
2022/05/21 01:20:47;;;;;;;9.30;5.28;;;20.10;98.80;;;;;;4993070;28;20062;-77
2022/05/21 01:23:14;;;;;;;11.02;4.80;;;19.90;99.20;;;;;;5006411;28;20042;-77
2022/05/21 01:25:41;;;;;;;8.13;5.00;;;19.90;99.30;;;;;;5001300;28;20459;-79
2022/05/21 01:28:09;;;;;;;7.38;5.18;;;19.80;99.50;;;;;;4988293;28;20114;-77
2022/05/21 01:30:51;;;;;;;8.48;5.00;;;19.80;99.50;;;;;;4988595;28;20030;-77
2022/05/21 01:33:20;;;;;;;8.93;5.47;;;19.90;99.40;;;;;;4992154;28;20022;-80
2022/05/21 01:35:47;;;;;;;7.10;4.53;;;19.80;99.50;;;;;;5000485;28;20855;-77
2022/05/21 01:38:16;;;;;;;10.75;4.93;;;19.80;99.50;;;;;;4998877;28;20080;-76
2022/05/21 01:40:42;;;;;;;6.93;4.40;;;19.80;99.70;;;;;;5004312;28;20026;-76
2022/05/21 01:45:52;;;;;;;9.60;3.83;;;19.80;99.50;;;;;;5010792;28;20041;-76
2022/05/21 01:48:21;;;;;;;7.53;3.97;;;20.10;99.30;;;;;;4993211;28;20026;-76
2022/05/21 01:50:48;;;;;;;7.43;3.28;;;20.30;98.90;;;;;;4996696;28;20061;-76
2022/05/21 01:53:14;;;;;;;7.72;4.18;;;20.40;98.80;;;;;;5002288;28;20030;-76
2022/05/21 01:55:41;;;;;;;7.07;4.18;;;20.40;98.80;;;;;;5005526;28;20158;-76
2022/05/21 01:58:07;;;;;;;7.35;3.90;;;20.10;99.20;;;;;;5014057;28;20030;-76
2022/05/21 02:00:33;;;;;;;7.32;4.20;;;20.10;99.30;;;;;;4998268;28;20030;-75
2022/05/21 02:02:58;;;;;;;9.88;3.50;;;20.00;99.40;;;;;;4996029;28;20477;-76
2022/05/21 02:05:24;;;;;;;9.02;4.00;;;20.00;99.50;;;;;;4996281;28;20133;-76
2022/05/21 02:07:50;;;;;;;6.93;4.15;;;20.00;99.50;;;;;;4996382;28;20034;-76
2022/05/21 02:10:16;;;;;;;12.38;3.90;;;20.00;99.50;;;;;;4996312;28;20053;-76
2022/05/21 02:12:41;;;;;;;7.30;4.18;;;20.10;99.20;;;;;;5014966;28;20040;-76
2022/05/21 02:15:08;;;;;;;7.75;3.80;;;20.00;99.40;;;;;;5015478;28;20033;-76
2022/05/21 02:17:33;;;;;;;11.18;3.83;;;20.00;99.40;;;;;;5015707;28;20036;-76
2022/05/21 02:19:59;;;;;;;8.75;4.15;;;20.00;99.40;;;;;;5015296;28;20097;-76
2022/05/21 02:22:26;;;;;;;8.55;4.07;;;20.00;99.70;;;;;;5015622;28;20104;-76
2022/05/21 02:24:52;;;;;;;8.18;4.18;;;20.00;99.70;;;;;;5015714;28;20044;-76
2022/05/21 02:27:18;;;;;;;6.07;3.50;;;20.00;99.70;;;;;;5015849;28;20037;-76
2022/05/21 02:29:44;;;;;;;6.78;4.03;;;19.90;99.70;;;;;;5015196;28;20084;-77
2022/05/21 02:32:14;;;;;;;5.95;3.13;;;19.70;99.90;;;;;;5012861;28;20451;-76
2022/05/21 02:34:41;;;;;;;9.80;3.85;;;19.60;99.90;;;;;;5014436;28;20028;-76
2022/05/21 02:39:52;;;;;;;6.18;3.70;;;19.70;99.90;;;;;;4996028;28;20494;-76
2022/05/21 02:45:03;;;;;;;7.30;3.95;;;19.50;99.90;;;;;;5014663;28;20184;-76
2022/05/21 02:47:30;;;;;;;5.35;3.25;;;19.30;99.90;;;;;;5005452;28;20037;-76
2022/05/21 02:49:56;;;;;;;6.60;3.97;;;19.20;99.90;;;;;;5004365;28;20030;-76
2022/05/21 02:52:22;;;;;;;6.50;3.38;;;19.20;99.90;;;;;;5006963;28;20481;-76
2022/05/21 02:54:48;;;;;;;5.90;3.95;;;19.30;99.90;;;;;;4995383;28;20026;-76
2022/05/21 02:57:15;;;;;;;8.45;3.90;;;19.30;99.90;;;;;;4996429;28;20035;-76
2022/05/21 02:59:41;;;;;;;6.90;3.40;;;19.40;99.90;;;;;;4995389;28;20101;-76
2022/05/21 03:02:07;;;;;;;6.80;3.67;;;19.60;99.90;;;;;;5007986;28;20366;-74
2022/05/21 03:04:33;;;;;;;7.07;3.65;;;19.70;99.90;;;;;;4992554;28;20066;-76
2022/05/21 03:06:59;;;;;;;6.35;3.40;;;19.70;99.90;;;;;;5004939;28;20408;-77
2022/05/21 03:12:11;;;;;;;6.22;4.00;;;19.60;99.90;;;;;;4996976;28;20049;-75
2022/05/21 03:14:37;;;;;;;5.55;3.33;;;19.50;99.90;;;;;;5007888;28;20077;-76
2022/05/21 03:17:03;;;;;;;9.95;3.60;;;19.40;99.90;;;;;;4992059;28;20102;-76
2022/05/21 03:19:31;;;;;;;8.52;3.70;;;19.30;99.90;;;;;;4989255;28;20456;-76
2022/05/21 03:21:58;;;;;;;6.53;2.72;;;19.40;99.90;;;;;;5006419;28;20533;-75
2022/05/21 03:24:25;;;;;;;7.88;3.45;;;19.50;99.90;;;;;;5007793;28;20037;-76
2022/05/21 03:26:51;;;;;;;8.13;3.10;;;19.60;99.90;;;;;;5008723;28;20038;-76
2022/05/21 03:29:16;;;;;;;6.30;3.03;;;19.60;99.90;;;;;;5005980;28;20030;-75
2022/05/21 03:31:42;;;;;;;6.65;3.55;;;19.50;99.90;;;;;;4988915;28;20516;-75
2022/05/21 03:34:08;;;;;;;7.43;3.20;;;19.40;99.90;;;;;;4996397;28;20389;-75
2022/05/21 03:36:34;;;;;;;7.15;3.85;;;19.40;99.90;;;;;;5006858;28;20160;-76
2022/05/21 03:39:00;;;;;;;7.15;3.60;;;19.30;99.90;;;;;;4997582;28;20037;-75
2022/05/21 03:41:26;;;;;;;9.82;4.18;;;19.10;99.90;;;;;;4989727;28;20030;-79
2022/05/21 03:43:52;;;;;;;7.43;3.67;;;18.80;99.90;;;;;;4988355;28;20393;-76
2022/05/21 03:46:19;;;;;;;6.53;3.97;;;18.60;99.90;;;;;;4989500;28;20062;-75
2022/05/21 03:48:45;;;;;;;7.30;3.55;;;18.80;99.90;;;;;;4989254;28;20161;-75
2022/05/21 03:51:11;;;;;;;6.45;3.85;;;18.50;99.90;;;;;;4989446;28;20030;-76
2022/05/21 03:53:37;;;;;;;8.45;3.72;;;18.50;99.90;;;;;;4990122;28;20161;-76
2022/05/21 03:56:03;;;;;;;4.80;3.15;;;18.50;99.90;;;;;;4989034;28;20026;-76
2022/05/21 03:58:30;;;;;;;6.65;3.45;;;18.80;99.90;;;;;;4997672;28;20252;-75
2022/05/21 04:00:56;;;;;;;6.35;3.38;;;18.90;99.90;;;;;;5007471;28;20029;-75
2022/05/21 04:03:21;;;;;;;7.75;3.38;;;19.00;99.90;;;;;;4992061;28;20378;-76
2022/05/21 04:05:47;;;;;;;6.78;2.97;;;18.90;99.90;;;;;;4986016;28;20442;-75
2022/05/21 04:08:16;;;;;;;7.72;3.13;;;19.00;99.90;;;;;;4996162;28;20087;-75
2022/05/21 04:10:42;;;;;;;6.65;3.10;;;19.10;99.90;;;;;;5006107;28;20072;-76
2022/05/21 04:13:07;;;;;;;5.03;2.95;;;19.10;99.90;;;;;;5006726;28;20500;-76
2022/05/21 04:15:34;;;;;;;6.43;3.20;;;19.10;99.90;;;;;;5009204;28;20030;-75
2022/05/21 04:18:00;;;;;;;5.63;2.55;;;19.20;99.90;;;;;;4993842;28;20057;-76
2022/05/21 04:20:26;;;;;;;6.10;2.85;;;19.20;99.90;;;;;;5008482;28;20026;-75
2022/05/21 04:22:52;;;;;;;7.35;2.58;;;19.30;99.90;;;;;;4993730;28;20034;-77
2022/05/21 04:25:18;;;;;;;8.55;2.63;;;19.20;99.90;;;;;;4991276;28;20041;-75
2022/05/21 04:27:44;;;;;;;5.63;2.45;;;19.30;99.90;;;;;;5008818;28;20104;-75
2022/05/21 04:30:16;;;;;;;6.22;2.78;;;19.40;99.90;;;;;;5006898;28;20108;-76
2022/05/21 04:32:43;;;;;;;5.50;2.90;;;19.40;99.90;;;;;;5008348;28;20076;-76
2022/05/21 04:35:10;;;;;;;14.15;3.22;;;19.50;99.90;;;;;;4997271;28;20104;-75
2022/05/21 04:37:39;;;;;;;6.05;2.72;;;19.40;99.90;;;;;;4988394;28;20026;-76
2022/05/21 04:40:08;;;;;;;5.68;3.00;;;19.50;99.90;;;;;;5006602;28;20026;-75
2022/05/21 04:42:34;;;;;;;5.47;2.53;;;19.30;99.90;;;;;;5007560;28;20036;-75
2022/05/21 04:45:00;;;;;;;7.68;3.20;;;19.30;99.90;;;;;;4987507;28;20042;-76
2022/05/21 04:47:25;;;;;;;5.32;2.92;;;19.20;99.90;;;;;;4988864;28;20053;-76
2022/05/21 04:49:51;;;;;;;6.78;3.35;;;19.20;99.90;;;;;;4989535;28;20295;-75
2022/05/21 04:52:17;;;;;;;7.93;2.88;;;19.20;99.90;;;;;;4989595;28;20027;-76
2022/05/21 04:54:42;;;;;;;6.20;3.05;;;19.10;99.90;;;;;;4988150;28;20018;-76
2022/05/21 04:57:08;;;;;;;5.40;2.67;;;19.20;99.90;;;;;;5003465;28;20124;-75
2022/05/21 04:59:34;;;;;;;8.90;3.33;;;19.30;99.90;;;;;;5007727;28;20519;-76
2022/05/21 05:02:00;;;;;;;6.45;3.50;;;19.30;99.90;;;;;;5006159;28;20084;-76
2022/05/21 05:04:25;;;;;;;5.55;3.38;;;19.40;99.90;;;;;;5005925;28;20539;-75
2022/05/21 05:06:51;;;;;;;5.60;3.05;;;19.50;99.90;;;;;;5007546;28;20030;-76
2022/05/21 05:09:21;;;;;;;5.60;2.63;;;19.40;99.90;;;;;;5006710;28;20033;-76
2022/05/21 05:11:47;;;;;;;6.07;3.22;;;19.30;99.90;;;;;;5007384;28;20447;-75
2022/05/21 05:14:13;;;;;;;5.82;2.72;;;19.50;99.90;;;;;;5007424;28;20029;-75
2022/05/21 05:16:39;;;;;;;6.72;2.60;;;19.30;99.90;;;;;;4988427;28;20030;-76
2022/05/21 05:19:05;;;;;;;6.63;2.72;;;19.50;99.90;;;;;;4988172;28;20038;-76
2022/05/21 05:21:31;;;;;;;5.65;2.85;;;19.60;99.90;;;;;;5004691;28;20034;-76
2022/05/21 05:23:56;;;;;;;10.50;3.33;;;19.70;99.90;;;;;;4991391;28;20048;-74
2022/05/21 05:26:22;;;;;;;5.25;2.63;;;19.90;99.90;;;;;;4987925;28;20028;-75
2022/05/21 05:28:49;;;;;;;7.03;3.10;;;20.00;99.50;;;;;;5000500;28;20029;-77
2022/05/21 05:31:15;;;;;;;6.82;2.85;;;20.10;99.60;;;;;;5007427;28;20095;-78
2022/05/21 05:33:40;;;;;;;6.45;3.13;;;20.10;99.90;;;;;;5006126;28;20070;-75
2022/05/21 05:36:06;;;;;;;8.13;3.58;;;19.90;99.90;;;;;;5007218;28;20451;-75
2022/05/21 05:38:32;;;;;;;7.13;3.55;;;19.80;99.90;;;;;;4989590;28;20125;-76
2022/05/21 05:40:58;;;;;;;9.82;3.72;;;19.80;99.90;;;;;;4991330;28;20030;-75
2022/05/21 05:43:24;;;;;;;5.47;3.20;;;19.80;99.90;;;;;;5008264;28;20189;-76
2022/05/21 05:45:51;;;;;;;6.32;3.33;;;19.80;99.90;;;;;;5011050;28;20041;-77
2022/05/21 05:48:19;;;;;;;6.35;3.13;;;19.80;99.90;;;;;;4993994;28;20022;-75
2022/05/21 05:50:45;;;;;;;5.45;2.97;;;19.80;99.90;;;;;;4995480;28;20366;-76
2022/05/21 05:53:11;;;;;;;5.97;3.60;;;19.80;99.90;;;;;;5010995;28;20072;-76
2022/05/21 05:55:37;;;;;;;10.27;3.53;;;19.70;99.90;;;;;;5009421;28;20527;-76
2022/05/21 06:00:48;;;;;;;6.82;3.00;;;19.80;99.90;;;;;;5009111;28;20037;-76
2022/05/21 06:03:14;;;;;;;4.57;2.83;;;19.80;99.90;;;;;;5010631;28;20030;-75
2022/05/21 06:05:39;;;;;;;6.40;2.70;;;19.90;99.90;;;;;;5008833;28;20037;-75
2022/05/21 06:08:07;;;;;;;4.45;2.75;;;20.00;99.90;;;;;;5010616;28;20048;-76
2022/05/21 06:10:36;;;;;;;7.47;3.00;;;19.90;99.90;;;;;;5001872;28;20026;-75
2022/05/21 06:13:03;;;;;;;8.98;2.85;;;20.00;99.90;;;;;;4993441;28;20041;-75
2022/05/21 06:15:29;;;;;;;5.95;3.13;;;20.10;99.90;;;;;;5000190;28;20034;-75
2022/05/21 06:17:55;;;;;;;5.65;3.03;;;20.20;99.90;;;;;;4990787;28;20216;-75
2022/05/21 06:20:26;;;;;;;6.28;2.40;;;20.30;99.90;;;;;;5008057;28;20345;-75
2022/05/21 06:22:53;;;;;;;4.07;2.35;;;20.20;99.90;;;;;;5010193;28;20044;-76
2022/05/21 06:25:21;;;;;;;6.13;3.15;;;20.30;99.90;;;;;;5010585;28;20037;-76
2022/05/21 06:27:50;;;;;;;5.40;3.00;;;20.20;99.90;;;;;;5010194;28;20056;-75
2022/05/21 06:30:18;;;;;;;6.50;3.65;;;20.20;99.80;;;;;;5010031;28;20061;-77
2022/05/21 06:32:44;;;;;;;7.15;3.58;;;20.20;99.90;;;;;;4994159;28;20315;-77
2022/05/21 06:35:11;;;;;;;5.40;3.15;;;20.20;99.70;;;;;;4990702;28;20121;-76
2022/05/21 06:37:38;;;;;;;5.70;3.03;;;20.20;99.90;;;;;;4990575;28;20034;-76
2022/05/21 06:40:05;;;;;;;6.25;3.40;;;20.40;99.50;;;;;;4990608;28;20031;-76
2022/05/21 06:42:31;;;;;;;7.43;2.92;;;20.40;99.70;;;;;;4990584;28;20018;-76
2022/05/21 06:44:57;;;;;;;5.88;3.13;;;20.50;98.90;;;;;;4990350;28;20523;-76
2022/05/21 06:47:23;;;;;;;9.63;3.13;;;20.70;99.10;;;;;;4991705;28;20428;-76
2022/05/21 06:49:51;;;;;;;9.02;3.33;;;20.90;98.60;;;;;;4992895;28;20162;-76
2022/05/21 06:52:17;;;;;;;7.30;2.92;;;21.10;98.40;;;;;;4990930;28;20278;-75
2022/05/21 06:54:43;;;;;;;6.32;2.78;;;21.40;98.20;;;;;;4990812;28;20054;-75
2022/05/21 06:57:10;;;;;;;4.65;2.50;;;21.50;98.00;;;;;;4990423;28;20504;-75
2022/05/21 06:59:36;;;;;;;7.97;2.95;;;21.60;97.80;;;;;;4990422;28;20035;-76
2022/05/21 07:02:02;;;;;;;7.70;2.92;;;21.90;97.30;;;;;;4990122;28;20026;-76
2022/05/21 07:09:57;;;;;;;11.32;2.88;;;22.40;96.60;;;;;;4998818;28;20071;-75
2022/05/21 07:12:23;;;;;;;5.10;2.72;;;22.80;95.70;;;;;;5009559;28;20034;-76
2022/05/21 07:14:49;;;;;;;5.50;2.67;;;22.90;95.70;;;;;;4993092;28;20045;-76
2022/05/21 07:17:16;;;;;;;4.95;3.00;;;23.20;95.70;;;;;;4990674;28;20410;-76
2022/05/21 07:19:42;;;;;;;9.07;3.08;;;23.30;95.40;;;;;;4992806;28;20420;-76
2022/05/21 07:22:09;;;;;;;5.15;2.70;;;23.90;95.10;;;;;;5002848;28;20034;-76
2022/05/21 07:24:42;;;;;;;5.65;3.00;;;24.70;93.70;;;;;;4997916;28;20077;-75
2022/05/21 07:27:08;;;;;;;5.20;2.80;;;25.60;92.60;;;;;;5007828;28;20026;-75
2022/05/21 07:29:40;;;;;;;4.88;2.72;;;26.60;91.30;;;;;;5002791;28;20030;-76
2022/05/21 07:32:18;;;;;;;5.72;2.92;;;27.40;90.00;;;;;;4989771;28;20062;-75
2022/05/21 07:34:44;;;;;;;10.48;2.88;;;27.90;88.80;;;;;;4989832;28;20030;-75
2022/05/21 07:37:10;;;;;;;4.32;2.72;;;27.70;88.80;;;;;;4989701;28;20477;-75
2022/05/21 07:39:36;;;;;;;7.82;2.97;;;28.50;88.60;;;;;;4989674;28;20061;-75
2022/05/21 07:42:02;;;;;;;7.55;2.80;;;28.60;87.10;;;;;;4998209;28;20106;-75
2022/05/21 07:44:27;;;;;;;4.63;2.83;;;28.20;87.70;;;;;;4989414;28;20497;-76
2022/05/21 07:46:53;;;;;;;8.07;3.33;;;28.10;87.30;;;;;;4989666;28;20041;-76
2022/05/21 07:49:19;;;;;;;4.95;2.55;;;28.30;87.00;;;;;;4989511;28;20078;-75
2022/05/21 07:51:44;;;;;;;5.30;2.92;;;27.70;87.10;;;;;;4989175;28;20088;-75
2022/05/21 07:54:10;;;;;;;4.28;2.45;;;28.10;87.70;;;;;;4989020;28;20033;-75
2022/05/21 07:56:36;;;;;;;5.78;2.95;;;28.20;86.50;;;;;;4988753;28;20026;-73
2022/05/21 07:59:01;;;;;;;5.70;2.78;;;27.60;87.40;;;;;;4988923;28;20497;-73
2022/05/21 08:01:27;;;;;;;6.45;2.80;;;28.10;86.50;;;;;;4988713;28;20083;-75
2022/05/21 08:03:52;;;;;;;8.23;4.50;;;26.90;88.10;;;;;;4988702;28;20045;-75
2022/05/21 08:06:18;;;;;;;7.00;3.33;;;26.60;90.20;;;;;;4989037;28;20313;-75
2022/05/21 08:08:45;;;;;;;7.13;3.38;;;26.70;89.90;;;;;;4997605;28;20041;-75
2022/05/21 08:11:11;;;;;;;5.22;2.85;;;25.80;90.70;;;;;;5009196;28;20396;-75
2022/05/21 08:13:37;;;;;;;5.75;2.75;;;25.60;90.80;;;;;;5010938;28;20030;-75
2022/05/21 08:16:03;;;;;;;6.53;2.60;;;25.30;91.00;;;;;;5010266;28;20083;-75
2022/05/21 08:18:29;;;;;;;5.63;2.47;;;24.90;91.40;;;;;;5000766;28;20437;-75
2022/05/21 08:20:55;;;;;;;6.57;2.63;;;25.00;91.50;;;;;;4988782;28;20109;-75
2022/05/21 08:28:50;;;;;;;9.05;3.33;;;25.00;91.10;;;;;;5004298;28;20606;-75
2022/05/21 08:31:16;;;;;;;48.47;5.30;;;25.20;91.60;;;;;;5002384;28;20061;-76
2022/05/21 08:33:42;;;;;;;5.72;2.45;;;25.20;92.00;;;;;;4991494;28;20120;-75
2022/05/21 08:36:07;;;;;;;5.65;2.83;;;25.50;91.20;;;;;;4998412;28;20353;-75
2022/05/21 08:38:33;;;;;;;5.63;2.70;;;25.60;91.30;;;;;;5015434;28;20049;-75
2022/05/21 08:41:32;;;;;;;5.50;2.83;;;25.80;91.00;;;;;;5011824;28;20053;-75
2022/05/21 08:44:03;;;;;;;11.50;3.33;;;25.80;91.30;;;;;;5025568;28;20046;-73
2022/05/21 08:47:06;;;;;;;8.07;3.13;;;25.90;91.30;;;;;;5008723;28;20381;-72
2022/05/21 08:49:38;;;;;;;4.60;2.60;;;25.60;90.90;;;;;;4999584;28;20649;-73
2022/05/21 08:52:15;;;;;;;6.07;2.40;;;25.70;91.40;;;;;;4989343;28;20040;-73
2022/05/21 08:54:44;;;;;;;4.40;2.40;;;25.90;91.00;;;;;;4988548;28;20023;-73
2022/05/21 08:57:17;;;;;;;6.47;2.83;;;26.10;91.40;;;;;;4988178;28;20108;-73
2022/05/21 08:59:53;;;;;;;5.57;2.97;;;25.90;91.10;;;;;;5005865;28;20179;-73
2022/05/21 09:02:25;;;;;;;4.82;2.67;;;26.10;90.60;;;;;;4998911;28;20030;-73
2022/05/21 09:04:50;;;;;;;4.72;3.10;;;25.90;90.30;;;;;;4988267;28;20047;-74
2022/05/21 09:07:22;;;;;;;6.43;2.53;;;26.00;91.00;;;;;;5000601;28;20026;-74
2022/05/21 09:10:27;;;;;;;4.72;2.58;;;26.30;90.30;;;;;;5008547;28;20037;-74
2022/05/21 09:13:13;;;;;;;8.30;2.85;;;26.10;90.30;;;;;;4992745;28;20046;-74
2022/05/21 09:18:26;;;;;;;6.32;2.38;;;26.10;90.20;;;;;;4993463;28;20045;-74
2022/05/21 09:21:17;;;;;;;6.57;2.67;;;26.30;89.90;;;;;;5001078;28;20030;-75
2022/05/21 09:24:01;;;;;;;6.28;2.70;;;26.40;90.30;;;;;;5031607;28;20069;-73
2022/05/21 09:26:30;;;;;;;5.07;2.95;;;26.60;89.70;;;;;;5023305;28;20092;-73
2022/05/21 09:29:26;;;;;;;7.05;2.90;;;26.90;89.90;;;;;;5009366;28;20071;-74
2022/05/21 09:31:55;;;;;;;6.40;2.83;;;27.10;89.90;;;;;;5012257;28;20149;-72
2022/05/21 09:34:31;;;;;;;4.85;2.60;;;27.40;89.40;;;;;;5012476;28;20439;-72
2022/05/21 09:36:58;;;;;;;5.22;2.90;;;27.10;88.90;;;;;;5012360;28;20030;-73
2022/05/21 09:39:34;;;;;;;5.97;2.72;;;27.30;90.00;;;;;;5020675;28;20073;-73
2022/05/21 09:45:22;;;;;;;7.35;2.60;;;27.80;88.10;;;;;;5012194;28;20404;-72
2022/05/21 09:48:06;;;;;;;4.47;2.63;;;27.60;87.90;;;;;;5012297;28;20535;-72
2022/05/21 09:50:45;;;;;;;5.10;2.92;;;27.80;88.50;;;;;;4997705;28;20903;-73
2022/05/21 09:53:36;;;;;;;5.47;2.80;;;27.30;87.90;;;;;;4992562;28;20105;-72
2022/05/21 09:56:04;;;;;;;5.47;2.42;;;27.20;89.40;;;;;;4997999;28;20021;-72
2022/05/21 09:58:37;;;;;;;7.05;2.53;;;27.20;89.40;;;;;;5011958;28;20061;-72
2022/05/21 10:01:04;;;;;;;9.55;3.17;;;27.40;88.90;;;;;;4992685;28;20065;-73
2022/05/21 10:03:51;;;;;;;6.40;2.80;;;27.20;89.20;;;;;;4992187;28;20109;-72
2022/05/21 10:06:30;;;;;;;6.18;2.92;;;27.40;88.50;;;;;;4992351;28;20027;-72
2022/05/21 10:12:04;;;;;;;9.25;3.13;;;27.70;88.30;;;;;;4992500;28;20064;-73
2022/05/21 10:14:34;;;;;;;7.25;2.92;;;27.60;87.80;;;;;;4997943;28;20042;-73
2022/05/21 10:17:05;;;;;;;5.85;2.15;;;27.90;88.20;;;;;;5029433;28;20575;-74
2022/05/21 10:19:38;;;;;;;9.13;2.58;;;28.00;87.30;;;;;;5010711;28;20487;-73
2022/05/21 10:22:36;;;;;;;9.07;3.22;;;28.10;88.30;;;;;;4991382;28;20030;-72
2022/05/21 10:25:04;;;;;;;10.55;2.65;;;28.60;86.10;;;;;;4991389;28;20058;-72
2022/05/21 10:27:51;;;;;;;7.68;2.80;;;28.60;86.80;;;;;;4991891;28;20114;-73
2022/05/21 10:30:34;;;;;;;6.70;2.63;;;28.60;86.10;;;;;;4991652;28;20058;-72
2022/05/21 10:33:29;;;;;;;4.73;2.40;;;28.00;85.80;;;;;;4991900;28;20102;-74
2022/05/21 10:35:56;;;;;;;5.68;2.20;;;27.70;86.50;;;;;;4992937;28;20069;-74
2022/05/21 10:38:37;;;;;;;9.18;2.38;;;27.90;85.80;;;;;;4991809;28;20048;-73
2022/05/21 10:41:20;;;;;;;10.73;3.05;;;27.80;85.80;;;;;;4991625;28;20101;-74
2022/05/21 10:43:53;;;;;;;;;;;27.60;85.10;;;;;;4995029;28;20041;-75
2022/05/21 10:46:40;;;;;;;7.45;2.35;;;27.70;86.10;;;;;;5009554;28;20000;-73
2022/05/21 10:49:29;;;;;;;6.93;2.67;;;27.90;87.60;;;;;;5004689;28;20041;-73
2022/05/21 10:52:02;;;;;;;4.70;2.47;;;28.00;86.50;;;;;;5011669;28;20045;-73
2022/05/21 10:55:00;;;;;;;6.45;2.75;;;28.50;88.00;;;;;;5010011;28;20052;-73
2022/05/21 10:57:34;;;;;;;4.43;2.30;;;28.40;85.60;;;;;;5010014;28;20060;-73
2022/05/21 11:00:02;;;;;;;6.75;2.97;;;28.10;85.10;;;;;;5010003;28;20260;-73
2022/05/21 11:02:31;;;;;;;10.57;3.55;;;28.10;85.80;;;;;;5009884;28;20062;-74
2022/05/21 11:05:23;;;;;;;4.80;2.55;;;28.60;86.40;;;;;;5009966;28;20050;-74
2022/05/21 11:08:21;;;;;;;6.30;2.47;;;28.90;85.60;;;;;;5010102;28;20037;-73
2022/05/21 11:10:52;;;;;;;5.90;2.72;;;28.70;85.00;;;;;;5009896;28;20091;-73
2022/05/21 11:13:36;;;;;;;4.43;2.60;;;28.70;84.70;;;;;;5009927;28;20022;-73
2022/05/21 11:16:08;;;;;;;5.78;2.67;;;29.30;85.40;;;;;;5009537;28;20033;-73
2022/05/21 11:18:42;;;;;;;6.18;2.28;;;29.20;83.70;;;;;;5009713;28;20049;-73
2022/05/21 11:21:26;;;;;;;7.30;3.28;;;29.40;85.00;;;;;;5009307;28;20095;-73
2022/05/21 11:24:12;;;;;;;5.97;2.75;;;29.80;84.70;;;;;;5009297;28;20044;-74
2022/05/21 11:26:49;;;;;;;6.15;2.40;;;29.70;85.00;;;;;;5009249;28;20485;-73
2022/05/21 11:29:40;;;;;;;6.85;3.15;;;29.80;85.60;;;;;;5009165;28;20038;-73
2022/05/21 11:37:50;;;;;;;4.75;2.47;;;29.60;82.90;;;;;;5009670;28;20060;-73
2022/05/21 11:41:27;;;;;;;8.40;3.08;;;29.40;84.30;;;;;;5008717;28;20133;-73
2022/05/21 11:47:06;;;;;;;8.10;2.80;;;29.60;83.90;;;;;;5025780;28;20041;-73
2022/05/21 11:49:52;;;;;;;4.75;2.58;;;30.10;84.30;;;;;;5010793;28;20038;-73
2022/05/21 11:52:27;;;;;;;4.82;2.60;;;30.00;84.60;;;;;;5007735;28;20677;-73
2022/05/21 11:55:13;;;;;;;5.68;3.20;;;30.10;84.60;;;;;;5008897;28;20080;-73
2022/05/21 11:57:45;;;;;;;6.03;2.47;;;30.10;83.60;;;;;;5008548;28;20022;-73
2022/05/21 12:00:24;;;;;;;9.73;3.47;;;29.70;83.80;;;;;;5009283;28;20029;-73
2022/05/21 12:03:15;;;;;;;7.43;3.10;;;29.60;83.70;;;;;;5008932;28;20053;-73
2022/05/21 12:05:41;;;;;;;7.88;2.90;;;29.50;85.00;;;;;;5008750;28;20036;-73
2022/05/21 12:08:22;;;;;;;6.05;2.72;;;29.60;84.40;;;;;;5008645;28;20060;-73
2022/05/21 12:11:13;;;;;;;7.22;3.03;;;29.70;84.30;;;;;;5008400;28;20074;-73
2022/05/21 12:13:48;;;;;;;10.57;3.00;;;29.70;85.00;;;;;;5008745;28;20647;-73
2022/05/21 12:16:16;;;;;;;13.57;3.88;;;29.50;84.20;;;;;;5008330;28;20026;-73
2022/05/21 12:18:44;;;;;;;8.13;3.15;;;29.40;84.70;;;;;;5008497;28;20147;-73
2022/05/21 12:21:35;;;;;;;9.63;3.78;;;29.50;84.50;;;;;;5008366;28;20265;-73
2022/05/21 12:24:24;;;;;;;7.75;3.58;;;29.60;84.50;;;;;;5008192;28;20092;-72
2022/05/21 12:27:05;;;;;;;5.22;3.17;;;29.40;85.70;;;;;;5008362;28;20050;-73
2022/05/21 12:29:39;;;;;;;6.57;3.10;;;29.70;83.90;;;;;;5008281;28;20053;-73
2022/05/21 12:32:05;;;;;;;5.25;2.70;;;29.90;84.00;;;;;;5008420;28;20057;-73
2022/05/21 12:34:59;;;;;;;5.90;2.88;;;30.30;85.60;;;;;;5008439;28;20056;-73
2022/05/21 12:37:32;;;;;;;9.20;3.55;;;30.60;84.00;;;;;;5008341;28;20068;-74
2022/05/21 12:40:01;;;;;;;6.35;3.63;;;30.60;83.80;;;;;;5008307;28;20536;-73
2022/05/21 12:42:42;;;;;;;6.75;3.17;;;30.60;83.90;;;;;;5008272;28;20033;-73
2022/05/21 12:45:09;;;;;;;11.95;3.42;;;30.30;82.80;;;;;;5008687;28;20034;-73
2022/05/21 12:47:38;;;;;;;10.30;4.03;;;30.10;84.10;;;;;;5008341;28;20030;-73
2022/05/21 12:50:14;;;;;;;5.95;3.88;;;30.40;84.10;;;;;;5008386;28;20080;-73
2022/05/21 12:52:49;;;;;;;10.75;3.67;;;30.60;83.20;;;;;;5008129;28;20025;-73
2022/05/21 12:55:33;;;;;;;5.20;3.67;;;30.60;85.20;;;;;;5008251;28;20022;-73
2022/05/21 12:58:08;;;;;;;9.45;3.20;;;30.80;85.60;;;;;;5008616;28;20292;-73
2022/05/21 13:00:35;;;;;;;7.70;3.30;;;31.30;84.80;;;;;;5007864;28;20038;-73
2022/05/21 13:03:09;;;;;;;10.15;4.18;;;31.20;83.20;;;;;;5007502;28;20022;-74
2022/05/21 13:05:48;;;;;;;6.63;3.85;;;31.10;83.00;;;;;;5007507;28;20153;-74
2022/05/21 13:08:14;;;;;;;7.38;3.67;;;31.80;84.30;;;;;;5007781;28;20030;-73
2022/05/21 13:10:53;;;;;;;7.35;3.72;;;31.80;81.40;;;;;;5007712;28;20431;-73
2022/05/21 13:13:21;;;;;;;6.70;3.58;;;31.70;83.00;;;;;;5007510;28;20014;-73
2022/05/21 13:16:00;;;;;;;10.07;3.90;;;32.10;82.20;;;;;;5007692;28;20257;-73
2022/05/21 13:18:49;;;;;;;9.68;4.13;;;32.10;82.50;;;;;;5007838;28;20037;-73
2022/05/21 13:21:20;;;;;;;5.70;3.75;;;32.20;81.30;;;;;;5009348;28;20404;-73
2022/05/21 13:24:09;;;;;;;12.05;5.05;;;31.80;82.40;;;;;;5007804;28;20120;-73
2022/05/21 13:26:38;;;;;;;6.35;4.07;;;32.00;82.40;;;;;;5007810;28;20034;-73
2022/05/21 13:29:25;;;;;;;10.52;4.00;;;32.10;82.70;;;;;;5007588;28;20024;-73
2022/05/21 13:31:53;;;;;;;9.05;4.00;;;32.20;82.10;;;;;;5007646;28;20026;-73
2022/05/21 13:34:25;;;;;;;10.30;4.45;;;32.20;82.90;;;;;;5007087;28;20126;-73
2022/05/21 13:36:59;;;;;;;10.13;4.05;;;31.90;82.30;;;;;;5007747;28;20037;-73
2022/05/21 13:39:30;;;;;;;16.67;6.07;;;32.20;83.40;;;;;;5007267;28;20101;-73
2022/05/21 13:42:18;;;;;;;6.55;4.47;;;32.40;82.50;;;;;;5007443;28;20031;-73
2022/05/21 13:44:47;;;;;;;9.40;5.18;;;32.20;82.40;;;;;;5006911;28;20045;-73
2022/05/21 13:47:13;;;;;;;8.30;4.15;;;32.30;83.30;;;;;;5007186;28;20555;-74
2022/05/21 13:49:40;;;;;;;9.43;5.25;;;32.20;82.80;;;;;;5007360;28;20113;-73
2022/05/21 13:52:09;;;;;;;14.82;5.10;;;31.90;82.00;;;;;;5007377;28;20116;-73